createdAt,value
2018-09-19T00:00:35.165Z,12.20
2018-09-19T00:03:02.846Z,12.90
2018-09-19T00:05:30.491Z,14.50
2018-09-19T00:07:58.168Z,13.97
2018-09-19T00:10:25.840Z,12.40
2018-09-19T00:12:53.487Z,12.93
2018-09-19T00:15:21.139Z,13.10
2018-09-19T00:17:48.750Z,12.98
2018-09-19T00:20:16.510Z,13.00
2018-09-19T00:22:44.168Z,13.50
2018-09-19T00:25:11.741Z,13.03
2018-09-19T00:27:39.465Z,13.53
2018-09-19T00:30:07.157Z,12.53
2018-09-19T00:32:34.837Z,13.43
2018-09-19T00:35:02.528Z,12.97
2018-09-19T00:37:30.136Z,12.70
2018-09-19T00:39:57.741Z,12.67
2018-09-19T00:42:25.421Z,13.55
2018-09-19T00:44:53.094Z,14.53
2018-09-19T00:47:20.719Z,13.50
2018-09-19T00:49:48.363Z,11.65
2018-09-19T00:52:16.030Z,13.83
2018-09-19T00:54:43.717Z,14.27
2018-09-19T00:57:11.421Z,13.60
2018-09-19T00:59:39.107Z,13.88
2018-09-19T01:02:06.871Z,14.05
2018-09-19T01:04:34.479Z,13.10
2018-09-19T01:07:02.208Z,11.57
2018-09-19T01:09:30.076Z,13.90
2018-09-19T01:11:57.726Z,13.73
2018-09-19T01:14:25.427Z,14.70
2018-09-19T01:16:53.072Z,13.83
2018-09-19T01:19:20.735Z,12.97
2018-09-19T01:21:48.437Z,13.13
2018-09-19T01:24:16.170Z,12.88
2018-09-19T01:26:43.862Z,13.38
2018-09-19T01:29:11.502Z,14.40
2018-09-19T01:31:39.329Z,12.97
2018-09-19T01:34:07.152Z,13.10
2018-09-19T01:36:34.783Z,13.13
2018-09-19T01:39:02.736Z,13.70
2018-09-19T01:41:30.380Z,12.77
2018-09-19T01:43:57.972Z,14.45
2018-09-19T01:46:25.595Z,14.70
2018-09-19T01:48:53.256Z,13.30
2018-09-19T01:51:20.967Z,14.00
2018-09-19T01:53:48.672Z,14.83
2018-09-19T01:56:16.362Z,12.73
2018-09-19T01:58:44.032Z,14.17
2018-09-19T02:01:11.637Z,13.88
2018-09-19T02:03:39.320Z,13.70
2018-09-19T02:06:06.977Z,14.20
2018-09-19T02:08:34.923Z,15.60
2018-09-19T02:11:02.615Z,14.93
2018-09-19T02:13:30.282Z,13.47
2018-09-19T02:15:57.879Z,14.45
2018-09-19T02:18:25.547Z,15.40
2018-09-19T02:20:53.183Z,15.77
2018-09-19T02:23:20.849Z,14.77
2018-09-19T02:25:48.426Z,15.60
2018-09-19T02:28:16.055Z,13.60
2018-09-19T02:30:43.748Z,14.68
2018-09-19T02:33:11.372Z,15.23
2018-09-19T02:35:39.115Z,15.10
2018-09-19T02:38:06.752Z,14.60
2018-09-19T02:40:34.457Z,15.47
2018-09-19T02:43:02.094Z,13.20
2018-09-19T02:45:29.777Z,15.45
2018-09-19T02:47:57.420Z,15.77
2018-09-19T02:50:25.067Z,16.63
2018-09-19T02:52:53.698Z,15.50
2018-09-19T02:55:21.498Z,15.40
2018-09-19T02:57:49.123Z,15.08
2018-09-19T03:00:16.870Z,15.10
2018-09-19T03:02:44.682Z,16.70
2018-09-19T03:05:12.482Z,16.57
2018-09-19T03:07:40.200Z,15.30
2018-09-19T03:10:07.940Z,15.90
2018-09-19T03:12:35.852Z,15.50
2018-09-19T03:15:03.883Z,15.17
2018-09-19T03:17:31.666Z,16.73
2018-09-19T03:19:59.313Z,15.50
2018-09-19T03:22:27.078Z,15.75
2018-09-19T03:24:54.732Z,15.87
2018-09-19T03:27:22.442Z,16.30
2018-09-19T03:29:50.070Z,16.70
2018-09-19T03:32:17.740Z,16.80
2018-09-19T03:34:45.456Z,17.83
2018-09-19T03:37:13.182Z,16.07
2018-09-19T03:39:40.844Z,16.70
2018-09-19T03:42:08.603Z,18.15
2018-09-19T03:44:36.294Z,15.10
2018-09-19T03:47:03.857Z,16.83
2018-09-19T03:49:31.535Z,19.40
2018-09-19T03:51:59.273Z,17.27
2018-09-19T03:54:26.897Z,17.30
2018-09-19T03:56:54.611Z,18.10
2018-09-19T03:59:22.358Z,17.23
2018-09-19T04:01:50.317Z,16.75
2018-09-19T04:04:18.167Z,16.93
2018-09-19T04:06:45.839Z,16.37
2018-09-19T04:09:14.327Z,14.93
2018-09-19T04:11:41.977Z,17.13
2018-09-19T04:14:10.772Z,16.48
2018-09-19T04:16:38.775Z,18.10
2018-09-19T04:19:06.462Z,17.53
2018-09-19T04:21:34.169Z,18.87
2018-09-19T04:24:01.769Z,17.00
2018-09-19T04:26:29.452Z,16.47
2018-09-19T04:28:57.162Z,18.00
2018-09-19T04:31:24.940Z,16.60
2018-09-19T04:33:52.643Z,16.60
2018-09-19T04:36:20.308Z,17.63
2018-09-19T04:38:48.046Z,17.30
2018-09-19T04:41:15.703Z,16.48
2018-09-19T04:43:43.338Z,16.30
2018-09-19T04:46:10.988Z,15.77
2018-09-19T04:48:38.864Z,17.87
2018-09-19T04:51:06.928Z,15.60
2018-09-19T04:53:34.574Z,16.50
2018-09-19T04:56:02.234Z,15.57
2018-09-19T04:58:30.020Z,17.12
2018-09-19T05:00:57.790Z,16.90
2018-09-19T05:03:25.492Z,15.80
2018-09-19T05:05:53.190Z,16.35
2018-09-19T05:08:20.825Z,16.30
2018-09-19T05:10:48.578Z,14.90
2018-09-19T05:13:16.199Z,14.40
2018-09-19T05:15:43.866Z,16.73
2018-09-19T05:18:11.545Z,16.05
2018-09-19T05:20:39.141Z,16.52
2018-09-19T05:23:06.953Z,16.20
2018-09-19T05:25:34.668Z,17.10
2018-09-19T05:28:02.379Z,16.83
2018-09-19T05:30:30.085Z,16.93
2018-09-19T05:32:57.671Z,18.17
2018-09-19T05:35:25.293Z,17.03
2018-09-19T05:37:52.968Z,17.30
2018-09-19T05:40:20.723Z,16.97
2018-09-19T05:42:48.309Z,17.07
2018-09-19T05:45:16.027Z,20.73
2018-09-19T05:47:43.676Z,16.50
2018-09-19T05:50:11.411Z,17.15
2018-09-19T05:52:38.958Z,15.72
2018-09-19T05:55:06.664Z,16.40
2018-09-19T05:57:34.350Z,16.80
2018-09-19T06:00:02.039Z,15.80
2018-09-19T06:02:30.049Z,18.77
2018-09-19T06:04:57.783Z,15.67
2018-09-19T06:07:25.418Z,16.53
2018-09-19T06:09:53.037Z,17.30
2018-09-19T06:12:20.710Z,17.30
2018-09-19T06:14:48.387Z,15.10
2018-09-19T06:17:16.124Z,16.03
2018-09-19T06:19:43.835Z,16.93
2018-09-19T06:22:11.599Z,16.60
2018-09-19T06:24:39.381Z,17.48
2018-09-19T06:27:07.131Z,18.37
2018-09-19T06:29:34.820Z,18.90
2018-09-19T06:32:02.566Z,16.47
2018-09-19T06:34:30.210Z,17.57
2018-09-19T06:36:58.028Z,16.63
2018-09-19T06:39:25.669Z,16.17
2018-09-19T06:41:53.369Z,16.20
2018-09-19T06:44:21.061Z,17.50
2018-09-19T06:46:48.979Z,15.88
2018-09-19T06:49:16.629Z,18.05
2018-09-19T06:51:44.267Z,17.63
2018-09-19T06:54:11.983Z,16.23
2018-09-19T06:56:39.699Z,17.73
2018-09-19T06:59:07.447Z,16.00
2018-09-19T07:01:35.120Z,16.27
2018-09-19T07:04:02.764Z,16.15
2018-09-19T07:06:30.573Z,15.33
2018-09-19T07:08:58.211Z,17.40
2018-09-19T07:11:25.884Z,14.50
2018-09-19T07:13:53.689Z,14.83
2018-09-19T07:16:21.507Z,15.78
2018-09-19T07:18:49.207Z,13.70
2018-09-19T07:21:16.995Z,15.37
2018-09-19T07:23:44.740Z,15.95
2018-09-19T07:26:12.389Z,15.45
2018-09-19T07:28:40.217Z,16.87
2018-09-19T07:31:07.974Z,17.10
2018-09-19T07:33:35.682Z,14.10
2018-09-19T07:36:03.371Z,14.70
2018-09-19T07:38:31.037Z,11.33
2018-09-19T07:40:58.799Z,13.80
2018-09-19T07:43:26.456Z,11.75
2018-09-19T07:45:54.174Z,11.57
2018-09-19T07:48:21.906Z,13.10
2018-09-19T07:50:49.676Z,11.67
2018-09-19T07:53:17.479Z,9.80
2018-09-19T07:55:45.258Z,9.70
2018-09-19T07:58:12.948Z,11.95
2018-09-19T08:00:40.725Z,9.70
2018-09-19T08:03:08.387Z,9.80
2018-09-19T08:05:36.153Z,9.40
2018-09-19T08:08:03.959Z,9.45
2018-09-19T08:10:31.726Z,9.63
2018-09-19T08:12:59.367Z,9.10
2018-09-19T08:15:27.039Z,10.00
2018-09-19T08:17:54.700Z,9.93
2018-09-19T08:20:22.437Z,8.90
2018-09-19T08:22:50.137Z,9.95
2018-09-19T08:25:18.184Z,9.80
2018-09-19T08:27:45.994Z,9.60
2018-09-19T08:30:13.705Z,9.13
2018-09-19T08:32:41.393Z,10.93
2018-09-19T08:35:09.042Z,9.20
2018-09-19T08:37:36.727Z,8.67
2018-09-19T08:40:04.787Z,9.13
2018-09-19T08:42:32.467Z,9.10
2018-09-19T08:45:00.210Z,8.60
2018-09-19T08:47:28.062Z,7.60
2018-09-19T08:49:55.797Z,8.93
2018-09-19T08:52:31.214Z,8.13
2018-09-19T08:54:58.974Z,7.60
2018-09-19T08:57:26.664Z,7.87
2018-09-19T08:59:54.309Z,7.05
2018-09-19T09:02:21.988Z,8.90
2018-09-19T09:04:49.660Z,7.37
2018-09-19T09:07:17.278Z,7.93
2018-09-19T09:09:44.983Z,7.62
2018-09-19T09:12:12.753Z,9.63
2018-09-19T09:14:40.418Z,9.27
2018-09-19T09:17:08.170Z,8.30
2018-09-19T09:19:35.968Z,8.80
2018-09-19T09:22:03.747Z,6.87
2018-09-19T09:24:31.441Z,7.20
2018-09-19T09:26:59.389Z,8.60
2018-09-19T09:29:27.119Z,7.97
2018-09-19T09:31:54.809Z,7.50
2018-09-19T09:34:22.619Z,7.07
2018-09-19T09:36:50.592Z,6.87
2018-09-19T09:39:19.235Z,7.07
2018-09-19T09:41:46.981Z,7.60
2018-09-19T09:44:14.706Z,7.90
2018-09-19T09:46:42.447Z,7.15
2018-09-19T09:49:10.235Z,7.33
2018-09-19T09:51:37.963Z,6.87
2018-09-19T09:54:05.725Z,7.73
2018-09-19T09:56:33.537Z,7.90
2018-09-19T09:59:01.444Z,7.50
2018-09-19T10:01:29.682Z,7.00
2018-09-19T10:03:57.616Z,7.30
2018-09-19T10:06:25.545Z,7.93
2018-09-19T10:08:53.224Z,7.30
2018-09-19T10:11:20.906Z,6.80
2018-09-19T10:13:48.670Z,8.03
2018-09-19T10:16:16.363Z,7.23
2018-09-19T10:18:44.006Z,7.97
2018-09-19T10:21:12.041Z,7.80
2018-09-19T10:23:39.662Z,8.28
2018-09-19T10:26:07.575Z,7.87
2018-09-19T10:28:35.299Z,7.40
2018-09-19T10:31:03.113Z,8.40
2018-09-19T10:33:30.772Z,7.17
2018-09-19T10:35:58.423Z,7.77
2018-09-19T10:38:26.139Z,7.83
2018-09-19T10:40:53.753Z,9.08
2018-09-19T10:43:21.361Z,7.60
2018-09-19T10:45:49.049Z,8.83
2018-09-19T10:48:16.757Z,7.30
2018-09-19T10:50:44.391Z,8.90
2018-09-19T10:53:12.093Z,9.67
2018-09-19T10:55:39.851Z,7.90
2018-09-19T10:58:07.487Z,9.37
2018-09-19T11:00:35.101Z,8.40
2018-09-19T11:03:02.810Z,10.40
2018-09-19T11:05:30.486Z,9.80
2018-09-19T11:07:58.211Z,10.27
2018-09-19T11:10:25.952Z,9.23
2018-09-19T11:12:53.763Z,9.75
2018-09-19T11:15:21.406Z,10.17
2018-09-19T11:17:49.060Z,10.72
2018-09-19T11:20:16.875Z,9.90
2018-09-19T11:22:44.543Z,9.83
2018-09-19T11:25:12.260Z,10.70
2018-09-19T11:27:40.005Z,11.53
2018-09-19T11:30:07.861Z,10.73
2018-09-19T11:32:35.555Z,11.00
2018-09-19T11:35:03.322Z,9.68
2018-09-19T11:37:31.103Z,8.40
2018-09-19T11:39:58.811Z,9.03
2018-09-19T11:42:26.555Z,8.70
2018-09-19T11:44:54.706Z,8.93
2018-09-19T11:47:22.400Z,8.05
2018-09-19T11:49:50.132Z,8.13
2018-09-19T11:52:17.837Z,8.23
2018-09-19T11:54:45.516Z,7.37
2018-09-19T11:57:13.234Z,6.87
2018-09-19T11:59:41.018Z,7.60
2018-09-19T12:02:08.676Z,7.27
2018-09-19T12:04:36.643Z,7.03
2018-09-19T12:07:04.411Z,6.80
2018-09-19T12:09:32.144Z,6.30
2018-09-19T12:12:00.217Z,7.10
2018-09-19T12:14:27.965Z,7.23
2018-09-19T12:17:01.244Z,6.90
2018-09-19T12:19:29.065Z,6.53
2018-09-19T12:21:56.728Z,6.20
2018-09-19T12:24:24.389Z,7.08
2018-09-19T12:26:52.210Z,7.20
2018-09-19T12:29:19.844Z,6.37
2018-09-19T12:31:47.542Z,7.13
2018-09-19T12:34:15.255Z,6.30
2018-09-19T12:36:42.995Z,6.17
2018-09-19T12:39:11.319Z,7.30
2018-09-19T12:41:39.594Z,6.07
2018-09-19T12:44:07.971Z,6.65
2018-09-19T12:46:35.886Z,6.70
2018-09-19T12:49:03.577Z,6.43
2018-09-19T12:51:31.373Z,6.90
2018-09-19T12:53:59.237Z,6.53
2018-09-19T12:56:27.055Z,6.17
2018-09-19T12:58:54.953Z,6.20
2018-09-19T13:01:22.993Z,6.33
2018-09-19T13:03:50.719Z,6.43
2018-09-19T13:06:18.476Z,7.53
2018-09-19T13:08:46.297Z,7.67
2018-09-19T13:11:13.815Z,6.97
2018-09-19T13:13:41.490Z,7.33
2018-09-19T13:16:09.163Z,7.80
2018-09-19T13:18:36.899Z,7.08
2018-09-19T13:21:04.550Z,6.40
2018-09-19T13:23:32.224Z,7.10
2018-09-19T13:25:59.879Z,7.23
2018-09-19T13:28:27.527Z,7.10
2018-09-19T13:30:55.233Z,7.35
2018-09-19T13:33:23.083Z,7.90
2018-09-19T13:35:50.757Z,7.43
2018-09-19T13:38:18.419Z,6.85
2018-09-19T13:40:46.089Z,7.85
2018-09-19T13:43:13.793Z,7.53
2018-09-19T13:45:41.473Z,8.17
2018-09-19T13:48:09.395Z,7.80
2018-09-19T13:51:48.138Z,7.97
2018-09-19T13:54:15.820Z,6.97
2018-09-19T13:56:43.571Z,7.10
2018-09-19T13:59:11.419Z,7.30
2018-09-19T14:01:39.253Z,8.23
2018-09-19T14:04:06.927Z,7.10
2018-09-19T14:06:34.743Z,7.40
2018-09-19T14:09:02.486Z,7.33
2018-09-19T14:11:30.148Z,7.10
2018-09-19T14:13:57.852Z,6.90
2018-09-19T14:16:25.646Z,5.78
2018-09-19T14:18:53.295Z,6.22
2018-09-19T14:21:20.965Z,6.40
2018-09-19T14:23:48.686Z,6.57
2018-09-19T14:26:16.471Z,6.37
2018-09-19T14:28:44.171Z,6.27
2018-09-19T14:31:11.885Z,5.80
2018-09-19T14:33:39.678Z,6.78
2018-09-19T14:36:07.317Z,6.40
2018-09-19T14:38:34.958Z,5.85
2018-09-19T14:41:02.614Z,5.10
2018-09-19T14:43:30.256Z,5.33
2018-09-19T14:45:57.958Z,5.20
2018-09-19T14:48:25.628Z,5.20
2018-09-19T14:50:53.280Z,4.92
2018-09-19T14:53:20.937Z,4.37
2018-09-19T14:55:48.542Z,4.80
2018-09-19T14:58:16.154Z,4.40
2018-09-19T15:00:43.878Z,4.87
2018-09-19T15:03:11.673Z,4.63
2018-09-19T15:05:39.328Z,5.17
2018-09-19T15:08:07.107Z,4.70
2018-09-19T15:10:34.830Z,5.85
2018-09-19T15:13:02.440Z,4.87
2018-09-19T15:15:31.240Z,5.47
2018-09-19T15:17:58.940Z,5.20
2018-09-19T15:20:27.639Z,4.90
2018-09-19T15:22:55.278Z,4.60
2018-09-19T15:25:22.974Z,5.23
2018-09-19T15:27:50.578Z,4.78
2018-09-19T15:30:18.874Z,5.60
2018-09-19T15:32:46.610Z,5.53
2018-09-19T15:35:14.322Z,5.42
2018-09-19T15:37:41.941Z,5.50
2018-09-19T15:40:09.583Z,5.50
2018-09-19T15:42:37.281Z,5.13
2018-09-19T15:45:05.149Z,6.00
2018-09-19T15:47:32.921Z,6.10
2018-09-19T15:50:00.597Z,5.92
2018-09-19T15:52:28.180Z,7.08
2018-09-19T15:54:55.806Z,6.03
2018-09-19T15:57:23.465Z,5.73
2018-09-19T15:59:51.196Z,7.33
2018-09-19T16:02:18.962Z,8.00
2018-09-19T16:04:46.662Z,7.10
2018-09-19T16:07:14.540Z,8.40
2018-09-19T16:09:42.195Z,8.58
2018-09-19T16:12:09.830Z,9.37
2018-09-19T16:14:37.496Z,9.63
2018-09-19T16:17:05.931Z,8.93
2018-09-19T16:19:33.623Z,8.50
2018-09-19T16:22:01.312Z,8.87
2018-09-19T16:24:29.004Z,9.37
2018-09-19T16:26:56.778Z,9.90
2018-09-19T16:29:24.360Z,8.30
2018-09-19T16:31:52.047Z,9.10
2018-09-19T16:34:19.674Z,9.43
2018-09-19T16:36:47.334Z,9.57
2018-09-19T16:39:14.993Z,10.10
2018-09-19T16:41:42.800Z,9.98
2018-09-19T16:44:10.700Z,10.67
2018-09-19T16:46:38.440Z,10.30
2018-09-19T16:49:06.894Z,10.00
2018-09-19T16:51:34.538Z,10.63
2018-09-19T16:54:02.202Z,10.00
2018-09-19T16:56:30.269Z,10.70
2018-09-19T16:58:58.285Z,11.08
2018-09-19T17:01:26.530Z,11.13
2018-09-19T17:03:54.168Z,11.47
2018-09-19T17:06:21.928Z,11.18
2018-09-19T17:08:49.716Z,10.93
2018-09-19T17:11:17.432Z,11.55
2018-09-19T17:13:45.700Z,11.13
2018-09-19T17:16:13.747Z,12.18
2018-09-19T17:18:41.561Z,10.93
2018-09-19T17:21:09.295Z,11.40
2018-09-19T17:23:37.093Z,10.90
2018-09-19T17:26:05.165Z,11.05
2018-09-19T17:28:34.136Z,12.10
2018-09-19T17:31:01.923Z,9.53
2018-09-19T17:33:29.835Z,10.97
2018-09-19T17:35:57.526Z,10.13
2018-09-19T17:38:25.293Z,11.53
2018-09-19T17:40:53.261Z,9.78
2018-09-19T17:43:21.143Z,11.40
2018-09-19T17:45:48.814Z,10.48
2018-09-19T17:48:17.672Z,9.73
2018-09-19T17:50:45.471Z,12.00
2018-09-19T17:53:13.268Z,11.23
2018-09-19T17:58:20.311Z,9.93
2018-09-19T18:00:48.064Z,9.60
2018-09-19T18:03:17.075Z,10.33
2018-09-19T18:05:44.990Z,10.10
2018-09-19T18:08:13.329Z,10.40
2018-09-19T18:10:41.154Z,10.80
2018-09-19T18:13:09.165Z,10.77
2018-09-19T18:15:38.029Z,10.63
2018-09-19T18:18:06.235Z,10.70
2018-09-19T18:20:33.985Z,9.50
2018-09-19T18:23:02.233Z,9.80
2018-09-19T18:25:30.117Z,10.00
2018-09-19T18:27:58.011Z,9.33
2018-09-19T18:30:25.742Z,10.30
2018-09-19T18:32:53.438Z,9.37
2018-09-19T18:35:21.172Z,9.25
2018-09-19T18:37:49.044Z,9.38
2018-09-19T18:40:16.912Z,9.90
2018-09-19T18:42:44.924Z,8.48
2018-09-19T18:45:12.676Z,9.15
2018-09-19T18:47:40.415Z,9.58
2018-09-19T18:50:08.390Z,8.67
2018-09-19T18:52:36.268Z,9.67
2018-09-19T18:55:04.393Z,8.67
2018-09-19T18:57:32.172Z,8.93
2018-09-19T19:00:00.248Z,9.90
2018-09-19T19:02:28.320Z,10.78
2018-09-19T19:04:56.306Z,10.23
2018-09-19T19:07:24.506Z,8.83
2018-09-19T19:09:52.534Z,8.10
2018-09-19T19:12:20.456Z,8.87
2018-09-19T19:14:48.330Z,9.17
2018-09-19T19:17:16.279Z,7.77
2018-09-19T19:19:44.210Z,8.37
2018-09-19T19:22:12.168Z,8.90
2018-09-19T19:24:40.084Z,9.37
2018-09-19T19:27:08.512Z,8.40
2018-09-19T19:29:36.329Z,8.00
2018-09-19T19:32:04.180Z,7.50
2018-09-19T19:34:32.018Z,7.13
2018-09-19T19:36:59.937Z,7.53
2018-09-19T19:39:27.740Z,6.30
2018-09-19T19:41:55.534Z,6.83
2018-09-19T19:44:23.624Z,7.50
2018-09-19T19:46:51.474Z,6.77
2018-09-19T19:49:19.284Z,6.63
2018-09-19T19:51:47.065Z,7.40
2018-09-19T19:56:53.501Z,7.23
2018-09-19T19:59:21.335Z,7.30
2018-09-19T20:01:49.083Z,7.40
2018-09-19T20:04:17.007Z,6.80
2018-09-19T20:06:44.752Z,7.40
2018-09-19T20:09:12.587Z,8.98
2018-09-19T20:11:40.420Z,7.65
2018-09-19T20:14:08.163Z,6.70
2018-09-19T20:16:36.073Z,7.53
2018-09-19T20:19:03.870Z,7.70
2018-09-19T20:21:32.037Z,6.30
2018-09-19T20:23:59.785Z,7.00
2018-09-19T20:26:27.815Z,6.62
2018-09-19T20:28:55.619Z,6.42
2018-09-19T20:31:23.463Z,6.53
2018-09-19T20:33:51.344Z,6.22
2018-09-19T20:36:19.042Z,6.08
2018-09-19T20:38:47.454Z,6.58
2018-09-19T20:41:15.203Z,6.60
2018-09-19T20:43:43.171Z,5.27
2018-09-19T20:46:11.008Z,4.73
2018-09-19T20:48:38.783Z,5.60
2018-09-19T20:51:06.639Z,5.20
2018-09-19T20:53:34.408Z,5.70
2018-09-19T20:56:02.301Z,5.17
2018-09-19T20:58:30.101Z,5.40
2018-09-19T21:00:57.916Z,4.75
2018-09-19T21:03:25.551Z,5.45
2018-09-19T21:05:53.296Z,4.47
2018-09-19T21:08:21.082Z,4.97
2018-09-19T21:10:48.822Z,5.30
2018-09-19T21:13:20.613Z,5.30
2018-09-19T21:15:48.305Z,5.40
2018-09-19T21:18:16.006Z,5.00
2018-09-19T21:20:43.733Z,5.35
2018-09-19T21:23:11.440Z,5.60
2018-09-19T21:25:39.329Z,5.60
2018-09-19T21:28:07.069Z,4.90
2018-09-19T21:30:34.751Z,4.20
2018-09-19T21:33:02.466Z,5.40
2018-09-19T21:35:30.193Z,5.27
2018-09-19T21:37:57.916Z,5.70
2018-09-19T21:40:25.816Z,6.12
2018-09-19T21:42:53.526Z,5.05
2018-09-19T21:45:21.363Z,5.15
2018-09-19T21:47:49.125Z,5.08
2018-09-19T21:50:16.779Z,5.47
2018-09-19T21:52:44.439Z,4.90
2018-09-19T21:55:12.174Z,5.00
2018-09-19T21:57:40.013Z,4.57
2018-09-19T22:00:08.617Z,3.80
2018-09-19T22:02:36.329Z,4.72
2018-09-19T22:05:04.068Z,3.57
2018-09-19T22:07:31.760Z,4.60
2018-09-19T22:09:59.509Z,4.17
2018-09-19T22:12:27.475Z,4.70
2018-09-19T22:14:55.315Z,4.77
2018-09-19T22:17:23.493Z,5.00
2018-09-19T22:19:51.225Z,5.40
2018-09-19T22:22:18.955Z,5.00
2018-09-19T22:24:46.612Z,4.87
2018-09-19T22:27:14.311Z,5.03
2018-09-19T22:29:42.135Z,4.60
2018-09-19T22:32:09.959Z,5.80
2018-09-19T22:34:37.641Z,3.87
2018-09-19T22:37:05.351Z,5.07
2018-09-19T22:39:33.052Z,5.50
2018-09-19T22:42:00.685Z,5.50
2018-09-19T22:44:28.308Z,6.17
2018-09-19T22:46:55.980Z,5.93
2018-09-19T22:49:23.666Z,5.73
2018-09-19T22:51:51.309Z,6.33
2018-09-19T22:54:19.001Z,6.58
2018-09-19T22:56:46.638Z,6.17
2018-09-19T22:59:14.333Z,4.80
2018-09-19T23:01:42.090Z,5.90
2018-09-19T23:04:09.725Z,5.23
2018-09-19T23:06:37.411Z,5.65
2018-09-19T23:09:06.752Z,6.70
2018-09-19T23:11:34.438Z,5.40
2018-09-19T23:14:02.171Z,6.40
2018-09-19T23:16:29.889Z,5.47
2018-09-19T23:18:57.513Z,6.30
2018-09-19T23:21:25.185Z,7.90
2018-09-19T23:23:52.843Z,6.67
2018-09-19T23:26:20.537Z,8.17
2018-09-19T23:28:48.271Z,8.60
2018-09-19T23:31:15.864Z,9.68
2018-09-19T23:33:43.527Z,10.00
2018-09-19T23:36:11.257Z,9.37
2018-09-19T23:38:38.889Z,10.60
2018-09-19T23:41:06.593Z,10.23
2018-09-19T23:43:34.342Z,9.40
2018-09-19T23:46:02.027Z,9.10
2018-09-19T23:48:29.785Z,9.83
2018-09-19T23:50:57.414Z,10.08
2018-09-19T23:53:25.111Z,10.07
2018-09-19T23:55:52.737Z,9.47
2018-09-19T23:58:20.389Z,9.50
